sensor_id;sensor_type;location;lat;lon;timestamp;P1;durP1;ratioP1;P2;durP2;ratioP2
50102;SDS011;35993;52.604;10.078;2023-03-20T00:00:27;18.05;;;11.65;;
50102;SDS011;35993;52.604;10.078;2023-03-20T00:02:58;18.98;;;11.65;;
50102;SDS011;35993;52.604;10.078;2023-03-20T00:05:24;19.13;;;12.60;;
50102;SDS011;35993;52.604;10.078;2023-03-20T00:07:51;16.15;;;10.57;;
50102;SDS011;35993;52.604;10.078;2023-03-20T00:10:17;16.92;;;11.57;;
50102;SDS011;35993;52.604;10.078;2023-03-20T00:12:45;17.58;;;11.90;;
50102;SDS011;35993;52.604;10.078;2023-03-20T00:15:18;17.20;;;11.88;;
50102;SDS011;35993;52.604;10.078;2023-03-20T00:17:49;19.15;;;11.95;;
50102;SDS011;35993;52.604;10.078;2023-03-20T00:20:14;18.75;;;11.57;;
50102;SDS011;35993;52.604;10.078;2023-03-20T00:22:41;17.35;;;11.02;;
50102;SDS011;35993;52.604;10.078;2023-03-20T00:25:08;17.70;;;11.32;;
50102;SDS011;35993;52.604;10.078;2023-03-20T00:27:38;16.35;;;11.07;;
50102;SDS011;35993;52.604;10.078;2023-03-20T00:30:12;20.95;;;12.40;;
50102;SDS011;35993;52.604;10.078;2023-03-20T00:32:43;19.10;;;12.18;;
50102;SDS011;35993;52.604;10.078;2023-03-20T00:35:17;20.60;;;12.05;;
50102;SDS011;35993;52.604;10.078;2023-03-20T00:37:51;20.80;;;12.07;;
50102;SDS011;35993;52.604;10.078;2023-03-20T00:40:17;21.90;;;12.65;;
50102;SDS011;35993;52.604;10.078;2023-03-20T00:42:44;21.48;;;12.35;;
50102;SDS011;35993;52.604;10.078;2023-03-20T00:45:15;23.05;;;12.32;;
50102;SDS011;35993;52.604;10.078;2023-03-20T00:47:43;21.83;;;12.70;;
50102;SDS011;35993;52.604;10.078;2023-03-20T00:50:15;23.02;;;13.10;;
50102;SDS011;35993;52.604;10.078;2023-03-20T00:52:44;22.92;;;13.23;;
50102;SDS011;35993;52.604;10.078;2023-03-20T00:55:10;23.42;;;13.90;;
50102;SDS011;35993;52.604;10.078;2023-03-20T00:57:41;21.67;;;12.20;;
50102;SDS011;35993;52.604;10.078;2023-03-20T01:03:05;21.63;;;12.40;;
50102;SDS011;35993;52.604;10.078;2023-03-20T01:05:37;22.67;;;12.68;;
50102;SDS011;35993;52.604;10.078;2023-03-20T01:08:13;25.65;;;13.65;;
50102;SDS011;35993;52.604;10.078;2023-03-20T01:10:48;25.27;;;13.52;;
50102;SDS011;35993;52.604;10.078;2023-03-20T01:15:45;29.83;;;14.98;;
50102;SDS011;35993;52.604;10.078;2023-03-20T01:18:13;24.98;;;13.65;;
50102;SDS011;35993;52.604;10.078;2023-03-20T01:20:40;28.00;;;14.52;;
50102;SDS011;35993;52.604;10.078;2023-03-20T01:23:06;30.02;;;14.80;;
50102;SDS011;35993;52.604;10.078;2023-03-20T01:25:32;31.25;;;14.60;;
50102;SDS011;35993;52.604;10.078;2023-03-20T01:27:59;29.67;;;14.07;;
50102;SDS011;35993;52.604;10.078;2023-03-20T01:30:26;30.40;;;15.07;;
50102;SDS011;35993;52.604;10.078;2023-03-20T01:32:54;30.38;;;14.90;;
50102;SDS011;35993;52.604;10.078;2023-03-20T01:35:21;32.78;;;14.05;;
50102;SDS011;35993;52.604;10.078;2023-03-20T01:37:50;32.92;;;15.25;;
50102;SDS011;35993;52.604;10.078;2023-03-20T01:40:27;28.05;;;14.38;;
50102;SDS011;35993;52.604;10.078;2023-03-20T01:42:55;31.48;;;14.30;;
50102;SDS011;35993;52.604;10.078;2023-03-20T01:45:21;32.40;;;15.38;;
50102;SDS011;35993;52.604;10.078;2023-03-20T01:47:51;32.78;;;14.73;;
50102;SDS011;35993;52.604;10.078;2023-03-20T01:50:29;35.40;;;15.55;;
50102;SDS011;35993;52.604;10.078;2023-03-20T01:53:03;31.02;;;14.52;;
50102;SDS011;35993;52.604;10.078;2023-03-20T01:55:39;31.35;;;15.32;;
50102;SDS011;35993;52.604;10.078;2023-03-20T01:58:09;34.40;;;15.52;;
50102;SDS011;35993;52.604;10.078;2023-03-20T02:00:40;32.92;;;15.80;;
50102;SDS011;35993;52.604;10.078;2023-03-20T02:03:10;31.90;;;14.73;;
50102;SDS011;35993;52.604;10.078;2023-03-20T02:05:54;33.83;;;15.82;;
50102;SDS011;35993;52.604;10.078;2023-03-20T02:08:24;32.17;;;15.15;;
50102;SDS011;35993;52.604;10.078;2023-03-20T02:10:53;34.30;;;16.17;;
50102;SDS011;35993;52.604;10.078;2023-03-20T02:15:54;38.50;;;16.52;;
50102;SDS011;35993;52.604;10.078;2023-03-20T02:18:35;37.95;;;15.35;;
50102;SDS011;35993;52.604;10.078;2023-03-20T02:29:18;42.05;;;17.05;;
50102;SDS011;35993;52.604;10.078;2023-03-20T02:41:22;40.22;;;17.80;;
50102;SDS011;35993;52.604;10.078;2023-03-20T02:47:58;42.13;;;17.27;;
50102;SDS011;35993;52.604;10.078;2023-03-20T02:50:18;42.88;;;17.33;;
50102;SDS011;35993;52.604;10.078;2023-03-20T02:53:14;43.97;;;17.90;;
50102;SDS011;35993;52.604;10.078;2023-03-20T03:01:24;41.30;;;17.58;;
50102;SDS011;35993;52.604;10.078;2023-03-20T03:03:56;49.78;;;17.85;;
50102;SDS011;35993;52.604;10.078;2023-03-20T03:06:28;37.75;;;16.52;;
50102;SDS011;35993;52.604;10.078;2023-03-20T03:09:30;39.85;;;16.70;;
50102;SDS011;35993;52.604;10.078;2023-03-20T03:12:02;41.40;;;16.48;;
50102;SDS011;35993;52.604;10.078;2023-03-20T03:14:36;39.40;;;16.75;;
50102;SDS011;35993;52.604;10.078;2023-03-20T03:17:12;38.92;;;17.20;;
50102;SDS011;35993;52.604;10.078;2023-03-20T03:19:42;39.75;;;17.02;;
50102;SDS011;35993;52.604;10.078;2023-03-20T03:22:13;34.35;;;15.85;;
50102;SDS011;35993;52.604;10.078;2023-03-20T03:24:43;34.08;;;14.70;;
50102;SDS011;35993;52.604;10.078;2023-03-20T03:27:18;35.75;;;15.20;;
50102;SDS011;35993;52.604;10.078;2023-03-20T03:30:15;33.25;;;14.77;;
50102;SDS011;35993;52.604;10.078;2023-03-20T03:32:50;32.17;;;14.70;;
50102;SDS011;35993;52.604;10.078;2023-03-20T03:35:41;31.10;;;14.23;;
50102;SDS011;35993;52.604;10.078;2023-03-20T03:41:21;33.50;;;14.32;;
50102;SDS011;35993;52.604;10.078;2023-03-20T03:47:05;28.55;;;12.45;;
50102;SDS011;35993;52.604;10.078;2023-03-20T03:49:39;30.88;;;12.68;;
50102;SDS011;35993;52.604;10.078;2023-03-20T03:52:11;28.45;;;11.88;;
50102;SDS011;35993;52.604;10.078;2023-03-20T03:57:33;28.17;;;11.82;;
50102;SDS011;35993;52.604;10.078;2023-03-20T04:00:05;26.13;;;11.52;;
50102;SDS011;35993;52.604;10.078;2023-03-20T04:02:40;26.23;;;11.38;;
50102;SDS011;35993;52.604;10.078;2023-03-20T04:05:08;24.27;;;11.18;;
50102;SDS011;35993;52.604;10.078;2023-03-20T04:07:34;26.75;;;11.50;;
50102;SDS011;35993;52.604;10.078;2023-03-20T04:10:00;24.23;;;10.90;;
50102;SDS011;35993;52.604;10.078;2023-03-20T04:12:30;22.88;;;10.30;;
50102;SDS011;35993;52.604;10.078;2023-03-20T04:15:01;24.00;;;10.82;;
50102;SDS011;35993;52.604;10.078;2023-03-20T04:17:28;24.85;;;11.27;;
50102;SDS011;35993;52.604;10.078;2023-03-20T04:19:54;23.20;;;10.30;;
50102;SDS011;35993;52.604;10.078;2023-03-20T04:22:20;24.38;;;11.25;;
50102;SDS011;35993;52.604;10.078;2023-03-20T04:24:46;25.92;;;10.85;;
50102;SDS011;35993;52.604;10.078;2023-03-20T04:27:12;24.70;;;9.85;;
50102;SDS011;35993;52.604;10.078;2023-03-20T04:29:38;25.27;;;10.40;;
50102;SDS011;35993;52.604;10.078;2023-03-20T04:32:36;21.92;;;10.02;;
50102;SDS011;35993;52.604;10.078;2023-03-20T04:35:16;26.00;;;11.32;;
50102;SDS011;35993;52.604;10.078;2023-03-20T04:37:55;28.92;;;10.85;;
50102;SDS011;35993;52.604;10.078;2023-03-20T04:40:21;22.30;;;10.10;;
50102;SDS011;35993;52.604;10.078;2023-03-20T04:42:47;20.23;;;10.13;;
50102;SDS011;35993;52.604;10.078;2023-03-20T04:45:13;22.98;;;9.77;;
50102;SDS011;35993;52.604;10.078;2023-03-20T04:47:38;22.50;;;10.23;;
50102;SDS011;35993;52.604;10.078;2023-03-20T04:50:05;22.85;;;9.85;;
50102;SDS011;35993;52.604;10.078;2023-03-20T04:52:31;22.98;;;9.98;;
50102;SDS011;35993;52.604;10.078;2023-03-20T04:54:57;22.98;;;10.30;;
50102;SDS011;35993;52.604;10.078;2023-03-20T04:57:22;22.00;;;9.88;;
50102;SDS011;35993;52.604;10.078;2023-03-20T04:59:48;22.48;;;10.15;;
50102;SDS011;35993;52.604;10.078;2023-03-20T05:02:14;22.20;;;9.00;;
50102;SDS011;35993;52.604;10.078;2023-03-20T05:04:41;20.77;;;9.50;;
50102;SDS011;35993;52.604;10.078;2023-03-20T05:07:08;18.50;;;9.05;;
50102;SDS011;35993;52.604;10.078;2023-03-20T05:09:42;19.35;;;9.32;;
50102;SDS011;35993;52.604;10.078;2023-03-20T05:12:08;21.80;;;9.23;;
50102;SDS011;35993;52.604;10.078;2023-03-20T05:14:45;21.10;;;9.00;;
50102;SDS011;35993;52.604;10.078;2023-03-20T05:17:31;19.08;;;8.82;;
50102;SDS011;35993;52.604;10.078;2023-03-20T05:20:06;20.58;;;9.55;;
50102;SDS011;35993;52.604;10.078;2023-03-20T05:22:54;18.27;;;8.05;;
50102;SDS011;35993;52.604;10.078;2023-03-20T05:25:37;19.85;;;9.27;;
50102;SDS011;35993;52.604;10.078;2023-03-20T05:28:17;22.40;;;9.27;;
50102;SDS011;35993;52.604;10.078;2023-03-20T05:31:04;21.75;;;8.90;;
50102;SDS011;35993;52.604;10.078;2023-03-20T05:33:50;20.10;;;8.75;;
50102;SDS011;35993;52.604;10.078;2023-03-20T05:36:26;20.60;;;9.30;;
50102;SDS011;35993;52.604;10.078;2023-03-20T05:39:14;21.33;;;8.65;;
50102;SDS011;35993;52.604;10.078;2023-03-20T05:42:09;21.35;;;8.77;;
50102;SDS011;35993;52.604;10.078;2023-03-20T05:44:46;24.17;;;9.15;;
50102;SDS011;35993;52.604;10.078;2023-03-20T05:47:24;21.50;;;8.45;;
50102;SDS011;35993;52.604;10.078;2023-03-20T05:49:50;19.60;;;9.15;;
50102;SDS011;35993;52.604;10.078;2023-03-20T05:52:42;20.65;;;8.60;;
50102;SDS011;35993;52.604;10.078;2023-03-20T05:55:22;22.27;;;9.77;;
50102;SDS011;35993;52.604;10.078;2023-03-20T05:58:11;22.40;;;9.45;;
50102;SDS011;35993;52.604;10.078;2023-03-20T06:00:56;23.35;;;9.63;;
50102;SDS011;35993;52.604;10.078;2023-03-20T06:03:48;23.17;;;10.15;;
50102;SDS011;35993;52.604;10.078;2023-03-20T06:08:48;24.95;;;9.77;;
50102;SDS011;35993;52.604;10.078;2023-03-20T06:11:13;26.08;;;10.63;;
50102;SDS011;35993;52.604;10.078;2023-03-20T06:13:40;27.63;;;11.13;;
50102;SDS011;35993;52.604;10.078;2023-03-20T06:16:05;27.17;;;11.25;;
50102;SDS011;35993;52.604;10.078;2023-03-20T06:18:31;27.25;;;11.13;;
50102;SDS011;35993;52.604;10.078;2023-03-20T06:20:57;30.00;;;11.75;;
50102;SDS011;35993;52.604;10.078;2023-03-20T06:23:26;26.30;;;10.63;;
50102;SDS011;35993;52.604;10.078;2023-03-20T06:25:51;34.53;;;12.23;;
50102;SDS011;35993;52.604;10.078;2023-03-20T06:28:19;29.63;;;11.77;;
50102;SDS011;35993;52.604;10.078;2023-03-20T06:30:45;30.70;;;12.00;;
50102;SDS011;35993;52.604;10.078;2023-03-20T06:33:15;32.17;;;12.73;;
50102;SDS011;35993;52.604;10.078;2023-03-20T06:35:54;32.22;;;13.02;;
50102;SDS011;35993;52.604;10.078;2023-03-20T06:38:20;32.00;;;12.48;;
50102;SDS011;35993;52.604;10.078;2023-03-20T06:40:45;34.38;;;13.27;;
50102;SDS011;35993;52.604;10.078;2023-03-20T06:43:15;33.17;;;13.15;;
50102;SDS011;35993;52.604;10.078;2023-03-20T06:48:20;29.58;;;12.63;;
50102;SDS011;35993;52.604;10.078;2023-03-20T06:50:47;33.72;;;12.85;;
50102;SDS011;35993;52.604;10.078;2023-03-20T06:53:19;34.10;;;14.45;;
50102;SDS011;35993;52.604;10.078;2023-03-20T06:56:02;32.53;;;13.23;;
50102;SDS011;35993;52.604;10.078;2023-03-20T06:58:27;28.30;;;13.23;;
50102;SDS011;35993;52.604;10.078;2023-03-20T07:00:53;34.63;;;14.00;;
50102;SDS011;35993;52.604;10.078;2023-03-20T07:03:19;30.25;;;12.50;;
50102;SDS011;35993;52.604;10.078;2023-03-20T07:05:47;30.67;;;12.70;;
50102;SDS011;35993;52.604;10.078;2023-03-20T07:08:13;31.98;;;13.07;;
50102;SDS011;35993;52.604;10.078;2023-03-20T07:10:39;33.33;;;13.85;;
50102;SDS011;35993;52.604;10.078;2023-03-20T07:13:05;29.17;;;12.80;;
50102;SDS011;35993;52.604;10.078;2023-03-20T07:15:31;31.42;;;13.15;;
50102;SDS011;35993;52.604;10.078;2023-03-20T07:17:57;31.90;;;14.00;;
50102;SDS011;35993;52.604;10.078;2023-03-20T07:20:25;36.42;;;14.07;;
50102;SDS011;35993;52.604;10.078;2023-03-20T07:22:51;39.20;;;14.80;;
50102;SDS011;35993;52.604;10.078;2023-03-20T07:25:22;36.63;;;14.68;;
50102;SDS011;35993;52.604;10.078;2023-03-20T07:27:48;32.45;;;13.93;;
50102;SDS011;35993;52.604;10.078;2023-03-20T07:30:17;34.33;;;14.65;;
50102;SDS011;35993;52.604;10.078;2023-03-20T07:32:43;34.05;;;15.05;;
50102;SDS011;35993;52.604;10.078;2023-03-20T07:35:09;35.03;;;14.60;;
50102;SDS011;35993;52.604;10.078;2023-03-20T07:37:39;33.80;;;14.02;;
50102;SDS011;35993;52.604;10.078;2023-03-20T07:40:05;33.42;;;14.63;;
50102;SDS011;35993;52.604;10.078;2023-03-20T07:42:34;30.08;;;13.52;;
50102;SDS011;35993;52.604;10.078;2023-03-20T07:45:12;29.40;;;13.68;;
50102;SDS011;35993;52.604;10.078;2023-03-20T07:47:43;30.42;;;14.02;;
50102;SDS011;35993;52.604;10.078;2023-03-20T07:50:09;33.40;;;13.98;;
50102;SDS011;35993;52.604;10.078;2023-03-20T07:52:35;32.38;;;14.40;;
50102;SDS011;35993;52.604;10.078;2023-03-20T07:55:01;36.35;;;14.63;;
50102;SDS011;35993;52.604;10.078;2023-03-20T07:57:26;36.88;;;14.27;;
50102;SDS011;35993;52.604;10.078;2023-03-20T07:59:52;38.42;;;14.63;;
50102;SDS011;35993;52.604;10.078;2023-03-20T08:02:17;32.30;;;14.68;;
50102;SDS011;35993;52.604;10.078;2023-03-20T08:04:43;35.10;;;15.93;;
50102;SDS011;35993;52.604;10.078;2023-03-20T08:07:09;35.35;;;14.45;;
50102;SDS011;35993;52.604;10.078;2023-03-20T08:09:35;32.72;;;14.05;;
50102;SDS011;35993;52.604;10.078;2023-03-20T08:12:01;32.75;;;14.35;;
50102;SDS011;35993;52.604;10.078;2023-03-20T08:14:27;34.25;;;14.35;;
50102;SDS011;35993;52.604;10.078;2023-03-20T08:16:52;32.97;;;14.10;;
50102;SDS011;35993;52.604;10.078;2023-03-20T08:19:18;34.00;;;13.38;;
50102;SDS011;35993;52.604;10.078;2023-03-20T08:21:43;34.33;;;14.32;;
50102;SDS011;35993;52.604;10.078;2023-03-20T08:24:09;33.30;;;13.68;;
50102;SDS011;35993;52.604;10.078;2023-03-20T08:26:35;32.50;;;14.50;;
50102;SDS011;35993;52.604;10.078;2023-03-20T08:29:00;33.45;;;14.25;;
50102;SDS011;35993;52.604;10.078;2023-03-20T08:31:26;34.58;;;14.43;;
50102;SDS011;35993;52.604;10.078;2023-03-20T08:33:52;34.00;;;13.25;;
50102;SDS011;35993;52.604;10.078;2023-03-20T08:36:19;28.23;;;12.75;;
50102;SDS011;35993;52.604;10.078;2023-03-20T08:38:45;28.25;;;13.35;;
50102;SDS011;35993;52.604;10.078;2023-03-20T08:41:12;30.52;;;12.80;;
50102;SDS011;35993;52.604;10.078;2023-03-20T08:43:38;30.15;;;12.65;;
50102;SDS011;35993;52.604;10.078;2023-03-20T08:46:03;27.95;;;12.55;;
50102;SDS011;35993;52.604;10.078;2023-03-20T08:48:29;26.38;;;11.95;;
50102;SDS011;35993;52.604;10.078;2023-03-20T08:50:55;30.05;;;12.90;;
50102;SDS011;35993;52.604;10.078;2023-03-20T08:53:21;34.70;;;17.05;;
50102;SDS011;35993;52.604;10.078;2023-03-20T08:55:47;27.13;;;12.70;;
50102;SDS011;35993;52.604;10.078;2023-03-20T08:58:14;21.13;;;10.48;;
50102;SDS011;35993;52.604;10.078;2023-03-20T09:00:40;20.85;;;10.15;;
50102;SDS011;35993;52.604;10.078;2023-03-20T09:03:06;24.85;;;10.73;;
50102;SDS011;35993;52.604;10.078;2023-03-20T09:05:45;21.70;;;10.70;;
50102;SDS011;35993;52.604;10.078;2023-03-20T09:08:12;22.95;;;9.68;;
50102;SDS011;35993;52.604;10.078;2023-03-20T09:10:38;23.13;;;10.43;;
50102;SDS011;35993;52.604;10.078;2023-03-20T09:13:05;23.90;;;12.23;;
50102;SDS011;35993;52.604;10.078;2023-03-20T09:15:31;24.50;;;11.07;;
50102;SDS011;35993;52.604;10.078;2023-03-20T09:17:56;17.45;;;8.55;;
50102;SDS011;35993;52.604;10.078;2023-03-20T09:20:22;19.35;;;9.05;;
50102;SDS011;35993;52.604;10.078;2023-03-20T09:22:48;18.45;;;8.98;;
50102;SDS011;35993;52.604;10.078;2023-03-20T09:25:13;17.52;;;8.30;;
50102;SDS011;35993;52.604;10.078;2023-03-20T09:27:39;15.30;;;8.65;;
50102;SDS011;35993;52.604;10.078;2023-03-20T09:30:05;15.52;;;7.57;;
50102;SDS011;35993;52.604;10.078;2023-03-20T09:32:32;16.08;;;7.35;;
50102;SDS011;35993;52.604;10.078;2023-03-20T09:34:59;17.45;;;7.75;;
50102;SDS011;35993;52.604;10.078;2023-03-20T09:37:26;15.93;;;7.10;;
50102;SDS011;35993;52.604;10.078;2023-03-20T09:39:51;15.35;;;7.00;;
50102;SDS011;35993;52.604;10.078;2023-03-20T09:45:11;14.82;;;7.20;;
50102;SDS011;35993;52.604;10.078;2023-03-20T09:47:49;15.35;;;6.93;;
50102;SDS011;35993;52.604;10.078;2023-03-20T09:50:27;13.98;;;7.03;;
50102;SDS011;35993;52.604;10.078;2023-03-20T09:53:07;15.27;;;7.72;;
50102;SDS011;35993;52.604;10.078;2023-03-20T09:55:38;14.73;;;7.10;;
50102;SDS011;35993;52.604;10.078;2023-03-20T10:00:37;17.95;;;7.65;;
50102;SDS011;35993;52.604;10.078;2023-03-20T10:03:10;14.05;;;7.47;;
50102;SDS011;35993;52.604;10.078;2023-03-20T10:05:46;15.80;;;8.23;;
50102;SDS011;35993;52.604;10.078;2023-03-20T10:08:16;15.25;;;8.52;;
50102;SDS011;35993;52.604;10.078;2023-03-20T10:13:29;19.13;;;9.75;;
50102;SDS011;35993;52.604;10.078;2023-03-20T10:21:56;17.75;;;8.93;;
50102;SDS011;35993;52.604;10.078;2023-03-20T10:24:27;21.83;;;10.30;;
50102;SDS011;35993;52.604;10.078;2023-03-20T10:26:54;18.75;;;9.43;;
50102;SDS011;35993;52.604;10.078;2023-03-20T10:29:32;19.45;;;8.82;;
50102;SDS011;35993;52.604;10.078;2023-03-20T10:32:34;21.70;;;10.88;;
50102;SDS011;35993;52.604;10.078;2023-03-20T10:40:40;18.20;;;9.35;;
50102;SDS011;35993;52.604;10.078;2023-03-20T10:43:13;18.48;;;9.95;;
50102;SDS011;35993;52.604;10.078;2023-03-20T10:45:43;18.10;;;9.15;;
50102;SDS011;35993;52.604;10.078;2023-03-20T10:48:16;20.45;;;10.40;;
50102;SDS011;35993;52.604;10.078;2023-03-20T10:50:49;19.35;;;9.50;;
50102;SDS011;35993;52.604;10.078;2023-03-20T10:53:20;20.60;;;9.48;;
50102;SDS011;35993;52.604;10.078;2023-03-20T10:55:50;20.58;;;10.55;;
50102;SDS011;35993;52.604;10.078;2023-03-20T10:58:23;19.20;;;9.40;;
50102;SDS011;35993;52.604;10.078;2023-03-20T11:00:53;16.00;;;9.02;;
50102;SDS011;35993;52.604;10.078;2023-03-20T11:03:21;16.67;;;9.15;;
50102;SDS011;35993;52.604;10.078;2023-03-20T11:05:51;18.58;;;9.02;;
50102;SDS011;35993;52.604;10.078;2023-03-20T11:08:20;15.40;;;8.63;;
50102;SDS011;35993;52.604;10.078;2023-03-20T11:10:51;15.05;;;8.52;;
50102;SDS011;35993;52.604;10.078;2023-03-20T11:13:29;13.98;;;7.90;;
50102;SDS011;35993;52.604;10.078;2023-03-20T11:16:06;15.07;;;8.15;;
50102;SDS011;35993;52.604;10.078;2023-03-20T11:18:35;14.48;;;7.85;;
50102;SDS011;35993;52.604;10.078;2023-03-20T11:21:01;14.43;;;7.72;;
50102;SDS011;35993;52.604;10.078;2023-03-20T11:23:33;12.05;;;7.35;;
50102;SDS011;35993;52.604;10.078;2023-03-20T11:26:03;16.67;;;8.38;;
50102;SDS011;35993;52.604;10.078;2023-03-20T11:34:23;15.20;;;8.00;;
50102;SDS011;35993;52.604;10.078;2023-03-20T11:36:58;13.68;;;6.93;;
50102;SDS011;35993;52.604;10.078;2023-03-20T11:39:30;14.35;;;7.50;;
50102;SDS011;35993;52.604;10.078;2023-03-20T11:42:01;11.75;;;6.75;;
50102;SDS011;35993;52.604;10.078;2023-03-20T11:44:28;13.35;;;6.97;;
50102;SDS011;35993;52.604;10.078;2023-03-20T11:49:28;10.10;;;5.60;;
50102;SDS011;35993;52.604;10.078;2023-03-20T11:51:56;9.70;;;5.15;;
50102;SDS011;35993;52.604;10.078;2023-03-20T11:54:26;9.13;;;5.65;;
50102;SDS011;35993;52.604;10.078;2023-03-20T11:56:59;10.65;;;5.45;;
50102;SDS011;35993;52.604;10.078;2023-03-20T11:59:34;10.38;;;5.70;;
50102;SDS011;35993;52.604;10.078;2023-03-20T12:02:11;7.57;;;4.10;;
50102;SDS011;35993;52.604;10.078;2023-03-20T12:04:45;9.23;;;4.72;;
50102;SDS011;35993;52.604;10.078;2023-03-20T12:07:28;8.63;;;4.05;;
50102;SDS011;35993;52.604;10.078;2023-03-20T12:09:57;6.40;;;3.47;;
50102;SDS011;35993;52.604;10.078;2023-03-20T12:12:33;7.15;;;3.97;;
50102;SDS011;35993;52.604;10.078;2023-03-20T12:15:15;9.07;;;3.80;;
50102;SDS011;35993;52.604;10.078;2023-03-20T12:20:53;9.18;;;3.80;;
50102;SDS011;35993;52.604;10.078;2023-03-20T12:23:37;6.40;;;3.65;;
50102;SDS011;35993;52.604;10.078;2023-03-20T12:28:38;6.63;;;3.08;;
50102;SDS011;35993;52.604;10.078;2023-03-20T12:31:25;5.82;;;3.55;;
50102;SDS011;35993;52.604;10.078;2023-03-20T12:36:45;7.05;;;2.97;;
50102;SDS011;35993;52.604;10.078;2023-03-20T12:39:16;4.32;;;2.50;;
50102;SDS011;35993;52.604;10.078;2023-03-20T12:49:56;4.38;;;2.40;;
50102;SDS011;35993;52.604;10.078;2023-03-20T12:52:42;4.95;;;2.30;;
50102;SDS011;35993;52.604;10.078;2023-03-20T12:55:27;6.25;;;2.50;;
50102;SDS011;35993;52.604;10.078;2023-03-20T12:58:05;7.13;;;2.40;;
50102;SDS011;35993;52.604;10.078;2023-03-20T13:00:34;6.18;;;2.75;;
50102;SDS011;35993;52.604;10.078;2023-03-20T13:06:09;4.72;;;2.22;;
50102;SDS011;35993;52.604;10.078;2023-03-20T13:11:50;4.53;;;2.20;;
50102;SDS011;35993;52.604;10.078;2023-03-20T13:17:38;5.07;;;2.75;;
50102;SDS011;35993;52.604;10.078;2023-03-20T13:20:25;6.25;;;2.70;;
50102;SDS011;35993;52.604;10.078;2023-03-20T13:22:58;6.75;;;2.58;;
50102;SDS011;35993;52.604;10.078;2023-03-20T13:25:31;7.25;;;2.97;;
50102;SDS011;35993;52.604;10.078;2023-03-20T13:28:01;7.20;;;2.58;;
50102;SDS011;35993;52.604;10.078;2023-03-20T13:30:36;7.03;;;2.80;;
50102;SDS011;35993;52.604;10.078;2023-03-20T13:36:06;7.03;;;2.80;;
50102;SDS011;35993;52.604;10.078;2023-03-20T13:38:38;8.43;;;2.33;;
50102;SDS011;35993;52.604;10.078;2023-03-20T13:41:07;7.18;;;2.40;;
50102;SDS011;35993;52.604;10.078;2023-03-20T13:43:37;4.47;;;2.65;;
50102;SDS011;35993;52.604;10.078;2023-03-20T13:46:06;4.95;;;2.20;;
50102;SDS011;35993;52.604;10.078;2023-03-20T13:48:39;5.75;;;2.88;;
50102;SDS011;35993;52.604;10.078;2023-03-20T14:04:33;6.90;;;3.10;;
50102;SDS011;35993;52.604;10.078;2023-03-20T14:06:59;6.68;;;2.88;;
50102;SDS011;35993;52.604;10.078;2023-03-20T14:09:26;7.47;;;3.20;;
50102;SDS011;35993;52.604;10.078;2023-03-20T14:11:54;5.35;;;2.70;;
50102;SDS011;35993;52.604;10.078;2023-03-20T14:14:24;5.85;;;3.30;;
50102;SDS011;35993;52.604;10.078;2023-03-20T14:19:53;6.43;;;3.25;;
50102;SDS011;35993;52.604;10.078;2023-03-20T14:22:21;6.03;;;3.03;;
50102;SDS011;35993;52.604;10.078;2023-03-20T14:24:58;7.75;;;3.33;;
50102;SDS011;35993;52.604;10.078;2023-03-20T14:27:34;6.22;;;3.05;;
50102;SDS011;35993;52.604;10.078;2023-03-20T14:33:29;5.43;;;2.67;;
50102;SDS011;35993;52.604;10.078;2023-03-20T14:38:46;7.85;;;3.08;;
50102;SDS011;35993;52.604;10.078;2023-03-20T14:41:25;5.25;;;2.90;;
50102;SDS011;35993;52.604;10.078;2023-03-20T14:49:00;6.38;;;2.90;;
50102;SDS011;35993;52.604;10.078;2023-03-20T14:56:48;7.43;;;2.67;;
50102;SDS011;35993;52.604;10.078;2023-03-20T14:59:16;5.45;;;3.10;;
50102;SDS011;35993;52.604;10.078;2023-03-20T15:01:55;8.35;;;3.47;;
50102;SDS011;35993;52.604;10.078;2023-03-20T15:04:30;9.80;;;3.20;;
50102;SDS011;35993;52.604;10.078;2023-03-20T15:07:22;3.83;;;2.45;;
50102;SDS011;35993;52.604;10.078;2023-03-20T15:09:50;7.50;;;2.70;;
50102;SDS011;35993;52.604;10.078;2023-03-20T15:12:19;6.18;;;2.60;;
50102;SDS011;35993;52.604;10.078;2023-03-20T15:14:55;6.13;;;2.88;;
50102;SDS011;35993;52.604;10.078;2023-03-20T15:17:27;5.30;;;2.78;;
50102;SDS011;35993;52.604;10.078;2023-03-20T15:22:28;5.57;;;2.55;;
50102;SDS011;35993;52.604;10.078;2023-03-20T15:24:55;5.47;;;2.28;;
50102;SDS011;35993;52.604;10.078;2023-03-20T15:27:21;8.25;;;2.75;;
50102;SDS011;35993;52.604;10.078;2023-03-20T15:29:53;4.38;;;2.15;;
50102;SDS011;35993;52.604;10.078;2023-03-20T15:32:20;7.28;;;2.75;;
50102;SDS011;35993;52.604;10.078;2023-03-20T15:34:46;7.22;;;2.20;;
50102;SDS011;35993;52.604;10.078;2023-03-20T15:37:14;5.00;;;2.50;;
50102;SDS011;35993;52.604;10.078;2023-03-20T15:39:44;4.57;;;2.50;;
50102;SDS011;35993;52.604;10.078;2023-03-20T15:42:12;4.97;;;2.30;;
50102;SDS011;35993;52.604;10.078;2023-03-20T15:44:41;4.88;;;2.15;;
50102;SDS011;35993;52.604;10.078;2023-03-20T15:49:35;7.03;;;3.75;;
50102;SDS011;35993;52.604;10.078;2023-03-20T15:52:03;7.80;;;2.63;;
50102;SDS011;35993;52.604;10.078;2023-03-20T15:54:32;7.25;;;3.10;;
50102;SDS011;35993;52.604;10.078;2023-03-20T15:57:01;4.80;;;2.53;;
50102;SDS011;35993;52.604;10.078;2023-03-20T15:59:28;5.53;;;2.33;;
50102;SDS011;35993;52.604;10.078;2023-03-20T16:01:57;6.97;;;2.28;;
50102;SDS011;35993;52.604;10.078;2023-03-20T16:04:24;4.93;;;2.67;;
50102;SDS011;35993;52.604;10.078;2023-03-20T16:06:52;6.82;;;2.60;;
50102;SDS011;35993;52.604;10.078;2023-03-20T16:09:23;7.40;;;2.85;;
50102;SDS011;35993;52.604;10.078;2023-03-20T16:14:25;4.55;;;2.38;;
50102;SDS011;35993;52.604;10.078;2023-03-20T16:16:54;6.85;;;3.28;;
50102;SDS011;35993;52.604;10.078;2023-03-20T16:19:22;6.10;;;2.78;;
50102;SDS011;35993;52.604;10.078;2023-03-20T16:21:55;7.20;;;2.80;;
50102;SDS011;35993;52.604;10.078;2023-03-20T16:24:25;6.40;;;2.40;;
50102;SDS011;35993;52.604;10.078;2023-03-20T16:27:06;4.53;;;2.63;;
50102;SDS011;35993;52.604;10.078;2023-03-20T16:29:33;5.65;;;2.85;;
50102;SDS011;35993;52.604;10.078;2023-03-20T16:32:03;10.10;;;4.10;;
50102;SDS011;35993;52.604;10.078;2023-03-20T16:34:40;6.57;;;2.65;;
50102;SDS011;35993;52.604;10.078;2023-03-20T16:37:07;5.47;;;2.67;;
50102;SDS011;35993;52.604;10.078;2023-03-20T16:39:46;4.57;;;2.58;;
50102;SDS011;35993;52.604;10.078;2023-03-20T16:42:20;7.85;;;2.50;;
50102;SDS011;35993;52.604;10.078;2023-03-20T16:44:52;4.43;;;2.05;;
50102;SDS011;35993;52.604;10.078;2023-03-20T16:47:20;4.75;;;2.50;;
50102;SDS011;35993;52.604;10.078;2023-03-20T16:50:04;7.57;;;2.50;;
50102;SDS011;35993;52.604;10.078;2023-03-20T16:52:43;11.38;;;3.95;;
50102;SDS011;35993;52.604;10.078;2023-03-20T16:55:13;4.85;;;2.25;;
50102;SDS011;35993;52.604;10.078;2023-03-20T16:57:41;3.95;;;2.42;;
50102;SDS011;35993;52.604;10.078;2023-03-20T17:02:48;7.90;;;2.47;;
50102;SDS011;35993;52.604;10.078;2023-03-20T17:05:17;5.53;;;2.60;;
50102;SDS011;35993;52.604;10.078;2023-03-20T17:07:47;8.48;;;3.03;;
50102;SDS011;35993;52.604;10.078;2023-03-20T17:12:41;7.18;;;2.97;;